createdAt,value
2022-12-20T00:01:25.219Z,100572.56
2022-12-20T00:03:54.360Z,100549.31
2022-12-20T00:06:22.029Z,100551.72
2022-12-20T00:08:54.553Z,100547.22
2022-12-20T00:11:27.173Z,100575.78
2022-12-20T00:13:54.207Z,100570.56
2022-12-20T00:16:24.385Z,100566.13
2022-12-20T00:18:56.594Z,100577.16
2022-12-20T00:21:24.139Z,100565.03
2022-12-20T00:23:52.386Z,100557.38
2022-12-20T00:26:21.707Z,100567.81
2022-12-20T00:28:48.618Z,100567.13
2022-12-20T00:31:18.292Z,100553.84
2022-12-20T00:33:47.444Z,100560.84
2022-12-20T00:36:14.829Z,100580.66
2022-12-20T00:38:42.944Z,100582.63
2022-12-20T00:41:12.394Z,100573.72
2022-12-20T00:43:40.380Z,100567.69
2022-12-20T00:46:08.835Z,100568.59
2022-12-20T00:48:36.211Z,100551.19
2022-12-20T00:51:14.407Z,100557.22
2022-12-20T00:53:41.763Z,100546.78
2022-12-20T00:56:09.361Z,100566.88
2022-12-20T00:58:39.269Z,100543.34
2022-12-20T01:01:16.307Z,100559.97
2022-12-20T01:03:43.089Z,100535.72
2022-12-20T01:06:10.401Z,100557.22
2022-12-20T01:08:37.155Z,100568.78
2022-12-20T01:11:08.634Z,100560.03
2022-12-20T01:13:37.976Z,100547.97
2022-12-20T01:16:13.167Z,100547.25
2022-12-20T01:18:39.961Z,100532.41
2022-12-20T01:21:12.731Z,100542.97
2022-12-20T01:23:40.644Z,100536.59
2022-12-20T01:26:11.126Z,100532.94
2022-12-20T01:28:39.929Z,100494.72
2022-12-20T01:31:09.406Z,100506.94
2022-12-20T01:33:36.322Z,100499.03
2022-12-20T01:36:06.221Z,100490.19
2022-12-20T01:38:33.767Z,100494.69
2022-12-20T01:41:00.683Z,100510.38
2022-12-20T01:43:58.509Z,100491.91
2022-12-20T01:46:27.149Z,100505.00
2022-12-20T01:49:00.576Z,100507.53
2022-12-20T01:51:29.753Z,100478.00
2022-12-20T01:54:07.753Z,100496.13
2022-12-20T01:56:35.945Z,100486.41
2022-12-20T01:59:02.733Z,100475.28
2022-12-20T02:01:30.739Z,100470.06
2022-12-20T02:03:57.612Z,100466.34
2022-12-20T02:06:27.934Z,100479.41
2022-12-20T02:08:59.563Z,100467.00
2022-12-20T02:11:48.834Z,100484.00
2022-12-20T02:14:33.763Z,100484.25
2022-12-20T02:17:20.739Z,100465.09
2022-12-20T02:20:11.523Z,100484.66
2022-12-20T02:23:06.126Z,100480.00
2022-12-20T02:25:45.969Z,100490.53
2022-12-20T02:28:15.775Z,100473.38
2022-12-20T02:30:47.361Z,100451.31
2022-12-20T02:33:14.851Z,100465.06
2022-12-20T02:35:42.767Z,100463.94
2022-12-20T02:38:30.717Z,100457.66
2022-12-20T02:41:20.285Z,100447.97
2022-12-20T02:44:09.882Z,100432.94
2022-12-20T02:46:38.095Z,100440.84
2022-12-20T02:49:11.578Z,100438.16
2022-12-20T02:51:40.050Z,100432.50
2022-12-20T02:54:06.979Z,100417.72
2022-12-20T02:56:42.784Z,100438.34
2022-12-20T02:59:11.943Z,100451.28
2022-12-20T03:01:45.517Z,100432.84
2022-12-20T03:04:13.371Z,100446.72
2022-12-20T03:06:40.209Z,100433.38
2022-12-20T03:09:06.870Z,100411.25
2022-12-20T03:11:34.022Z,100430.72
2022-12-20T03:14:00.821Z,100421.59
2022-12-20T03:16:27.494Z,100416.19
2022-12-20T03:18:54.147Z,100422.19
2022-12-20T03:21:20.777Z,100400.44
2022-12-20T03:23:47.379Z,100408.44
2022-12-20T03:26:13.990Z,100415.91
2022-12-20T03:28:40.669Z,100392.28
2022-12-20T03:31:07.306Z,100406.00
2022-12-20T03:33:34.090Z,100382.50
2022-12-20T03:36:00.681Z,100405.06
2022-12-20T03:38:27.546Z,100417.28
2022-12-20T03:40:54.183Z,100438.78
2022-12-20T03:43:20.766Z,100397.19
2022-12-20T03:45:47.326Z,100430.09
2022-12-20T03:48:14.011Z,100417.03
2022-12-20T03:50:41.314Z,100403.25
2022-12-20T03:53:08.046Z,100434.66
2022-12-20T03:55:34.647Z,100411.28
2022-12-20T03:58:01.341Z,100416.28
2022-12-20T04:00:28.406Z,100434.31
2022-12-20T04:02:56.132Z,100435.84
2022-12-20T04:05:22.877Z,100420.22
2022-12-20T04:07:50.037Z,100424.84
2022-12-20T04:10:16.663Z,100416.63
2022-12-20T04:12:43.480Z,100416.47
2022-12-20T04:15:10.791Z,100419.81
2022-12-20T04:17:37.456Z,100410.53
2022-12-20T04:20:19.079Z,100416.47
2022-12-20T04:22:51.349Z,100399.66
2022-12-20T04:25:20.357Z,100409.56
2022-12-20T04:27:47.219Z,100424.88
2022-12-20T04:30:14.141Z,100406.03
2022-12-20T04:32:40.872Z,100390.56
2022-12-20T04:35:07.846Z,100397.25
2022-12-20T04:37:34.390Z,100390.34
2022-12-20T04:40:00.968Z,100384.38
2022-12-20T04:42:27.581Z,100386.75
2022-12-20T04:44:54.200Z,100374.91
2022-12-20T04:47:20.827Z,100340.91
2022-12-20T04:49:47.661Z,100394.03
2022-12-20T04:52:32.793Z,100364.50
2022-12-20T04:54:59.425Z,100373.31
2022-12-20T04:57:26.111Z,100393.56
2022-12-20T04:59:52.848Z,100365.28
2022-12-20T05:02:21.683Z,100374.97
2022-12-20T05:04:48.385Z,100375.78
2022-12-20T05:07:15.413Z,100355.75
2022-12-20T05:09:42.056Z,100391.88
2022-12-20T05:12:08.724Z,100353.34
2022-12-20T05:14:35.339Z,100356.53
2022-12-20T05:17:01.979Z,100343.47
2022-12-20T05:19:28.644Z,100376.22
2022-12-20T05:22:14.184Z,100372.66
2022-12-20T05:24:59.356Z,100375.00
2022-12-20T05:27:26.046Z,100337.03
2022-12-20T05:29:52.671Z,100360.09
2022-12-20T05:32:19.259Z,100367.84
2022-12-20T05:34:46.126Z,100356.84
2022-12-20T05:37:12.993Z,100328.31
2022-12-20T05:39:39.699Z,100347.72
2022-12-20T05:42:06.320Z,100368.28
2022-12-20T05:44:32.888Z,100365.03
2022-12-20T05:46:59.957Z,100344.50
2022-12-20T05:49:26.661Z,100356.34
2022-12-20T05:51:55.413Z,100363.28
2022-12-20T05:54:22.397Z,100343.47
2022-12-20T05:56:49.010Z,100369.47
2022-12-20T05:59:17.844Z,100364.81
2022-12-20T06:01:44.617Z,100370.41
2022-12-20T06:04:11.401Z,100327.28
2022-12-20T06:06:38.112Z,100348.47
2022-12-20T06:09:04.721Z,100353.16
2022-12-20T06:11:32.529Z,100332.66
2022-12-20T06:13:59.629Z,100367.06
2022-12-20T06:16:27.353Z,100376.50
2022-12-20T06:18:54.382Z,100373.78
2022-12-20T06:21:21.325Z,100367.56
2022-12-20T06:23:47.979Z,100366.75
2022-12-20T06:26:15.090Z,100348.41
2022-12-20T06:28:43.208Z,100349.03
2022-12-20T06:31:11.252Z,100335.00
2022-12-20T06:33:38.023Z,100321.56
2022-12-20T06:36:04.950Z,100315.63
2022-12-20T06:38:31.596Z,100323.31
2022-12-20T06:40:58.377Z,100335.56
2022-12-20T06:43:25.025Z,100289.03
2022-12-20T06:45:51.772Z,100331.06
2022-12-20T06:48:18.471Z,100315.00
2022-12-20T06:50:49.225Z,100317.13
2022-12-20T06:53:18.799Z,100375.13
2022-12-20T06:55:50.313Z,100386.22
2022-12-20T06:58:18.064Z,100338.09
2022-12-20T07:00:44.692Z,100385.03
2022-12-20T07:03:11.448Z,100380.38
2022-12-20T07:05:38.535Z,100376.19
2022-12-20T07:08:06.693Z,100387.13
2022-12-20T07:10:37.618Z,100355.19
2022-12-20T07:13:04.289Z,100385.16
2022-12-20T07:15:31.686Z,100367.50
2022-12-20T07:17:59.460Z,100370.66
2022-12-20T07:20:26.125Z,100375.00
2022-12-20T07:22:52.880Z,100359.56
2022-12-20T07:25:19.728Z,100385.34
2022-12-20T07:27:50.008Z,100357.16
2022-12-20T07:30:18.434Z,100373.66
2022-12-20T07:32:45.566Z,100381.34
2022-12-20T07:35:13.915Z,100393.41
2022-12-20T07:37:41.245Z,100367.97
2022-12-20T07:40:09.610Z,100396.97
2022-12-20T07:42:39.191Z,100376.41
2022-12-20T07:45:08.529Z,100386.25
2022-12-20T07:47:35.955Z,100347.38
2022-12-20T07:50:03.415Z,100409.34
2022-12-20T07:52:33.072Z,100410.19
2022-12-20T07:55:03.142Z,100384.09
2022-12-20T07:57:40.209Z,100395.63
2022-12-20T08:00:09.048Z,100389.84
2022-12-20T08:02:40.953Z,100360.91
2022-12-20T08:05:09.951Z,100381.63
2022-12-20T08:07:40.046Z,100367.22
2022-12-20T08:10:11.195Z,100400.47
2022-12-20T08:12:38.985Z,100361.84
2022-12-20T08:15:06.185Z,100359.00
2022-12-20T08:17:32.851Z,100362.84
2022-12-20T08:20:00.675Z,100366.47
2022-12-20T08:22:27.501Z,100342.91
2022-12-20T08:24:54.074Z,100340.72
2022-12-20T08:27:20.693Z,100361.47
2022-12-20T08:29:47.317Z,100362.94
2022-12-20T08:32:14.325Z,100345.63
2022-12-20T08:34:41.137Z,100365.66
2022-12-20T08:37:14.524Z,100349.47
2022-12-20T08:39:41.653Z,100319.25
2022-12-20T08:42:08.348Z,100343.50
2022-12-20T08:44:35.178Z,100341.16
2022-12-20T08:47:01.889Z,100325.03
2022-12-20T08:49:28.603Z,100340.28
2022-12-20T08:51:55.211Z,100311.72
2022-12-20T08:54:21.984Z,100327.66
2022-12-20T08:56:48.759Z,100323.00
2022-12-20T08:59:15.456Z,100322.13
2022-12-20T09:01:42.220Z,100335.00
2022-12-20T09:04:11.246Z,100320.78
2022-12-20T09:06:37.991Z,100315.91
2022-12-20T09:09:07.135Z,100332.56
2022-12-20T09:11:34.245Z,100312.94
2022-12-20T09:14:00.944Z,100301.28
2022-12-20T09:16:30.651Z,100255.94
2022-12-20T09:19:05.224Z,100324.44
2022-12-20T09:21:34.182Z,100294.00
2022-12-20T09:24:01.028Z,100271.47
2022-12-20T09:26:27.733Z,100276.03
2022-12-20T09:28:54.588Z,100294.56
2022-12-20T09:31:24.569Z,100284.63
2022-12-20T09:33:54.824Z,100271.22
2022-12-20T09:36:22.871Z,100246.88
2022-12-20T09:38:49.654Z,100253.59
2022-12-20T09:41:25.355Z,100282.69
2022-12-20T09:43:52.735Z,100259.78
2022-12-20T09:46:20.106Z,100265.00
2022-12-20T09:48:47.648Z,100255.06
2022-12-20T09:51:36.143Z,100275.75
2022-12-20T09:54:23.796Z,100240.47
2022-12-20T09:57:00.393Z,100258.81
2022-12-20T09:59:28.635Z,100267.47
2022-12-20T10:01:55.706Z,100246.88
2022-12-20T10:04:27.472Z,100263.78
2022-12-20T10:07:06.527Z,100259.69
2022-12-20T10:09:36.056Z,100253.09
2022-12-20T10:12:35.162Z,100249.13
2022-12-20T10:15:16.140Z,100215.91
2022-12-20T10:17:45.633Z,100233.72
2022-12-20T10:20:24.418Z,100240.41
2022-12-20T10:23:00.773Z,100238.03
2022-12-20T10:25:35.058Z,100212.88
2022-12-20T10:28:12.621Z,100218.03
2022-12-20T10:30:39.229Z,100194.72
2022-12-20T10:33:05.964Z,100185.97
2022-12-20T10:35:40.813Z,100182.31
2022-12-20T10:38:12.652Z,100174.22
2022-12-20T10:41:20.630Z,100207.84
2022-12-20T10:43:48.901Z,100182.47
2022-12-20T10:46:18.942Z,100151.78
2022-12-20T10:48:47.798Z,100158.00
2022-12-20T10:51:21.101Z,100150.31
2022-12-20T10:53:58.101Z,100181.53
2022-12-20T10:56:27.824Z,100175.31
2022-12-20T10:59:16.299Z,100173.72
2022-12-20T11:01:48.602Z,100172.88
2022-12-20T11:04:31.115Z,100162.44
2022-12-20T11:06:59.270Z,100165.13
2022-12-20T11:09:26.302Z,100157.13
2022-12-20T11:11:59.021Z,100155.63
2022-12-20T11:14:26.459Z,100151.72
2022-12-20T11:16:55.621Z,100149.28
2022-12-20T11:19:45.099Z,100153.34
2022-12-20T11:22:33.228Z,100163.09
2022-12-20T11:25:26.223Z,100156.88
2022-12-20T11:28:08.071Z,100141.22
2022-12-20T11:30:49.215Z,100112.91
2022-12-20T11:33:34.071Z,100144.28
2022-12-20T11:36:31.635Z,100112.06
2022-12-20T11:39:35.194Z,100124.72
2022-12-20T11:42:29.703Z,100123.00
2022-12-20T11:45:14.660Z,100110.53
2022-12-20T11:48:10.081Z,100113.75
2022-12-20T11:50:53.110Z,100071.41
2022-12-20T11:53:43.902Z,100082.66
2022-12-20T11:56:43.266Z,100091.16
2022-12-20T11:59:39.055Z,100078.66
2022-12-20T12:02:13.460Z,100068.84
2022-12-20T12:04:50.982Z,100068.06
2022-12-20T12:07:23.137Z,100068.84
2022-12-20T12:09:57.271Z,100083.06
2022-12-20T12:12:45.435Z,100075.69
2022-12-20T12:15:32.014Z,100077.28
2022-12-20T12:18:03.431Z,100067.09
2022-12-20T12:20:48.501Z,100072.44
2022-12-20T12:23:23.835Z,100069.31
2022-12-20T12:25:51.063Z,100038.69
2022-12-20T12:28:19.908Z,100014.72
2022-12-20T12:30:58.422Z,100039.34
2022-12-20T12:33:38.999Z,100031.19
2022-12-20T12:36:34.012Z,100054.78
2022-12-20T12:39:39.204Z,100053.41
2022-12-20T12:42:05.812Z,100053.75
2022-12-20T12:45:15.195Z,100056.31
2022-12-20T12:47:51.413Z,100058.13
2022-12-20T12:50:37.457Z,100058.84
2022-12-20T12:53:15.554Z,100056.81
2022-12-20T12:55:46.601Z,100022.19
2022-12-20T12:58:25.284Z,100056.31
2022-12-20T13:00:55.147Z,100019.69
2022-12-20T13:03:37.416Z,100049.06
2022-12-20T13:06:26.185Z,100049.41
2022-12-20T13:08:58.966Z,100037.41
2022-12-20T13:11:33.126Z,99993.38
2022-12-20T13:14:31.909Z,100046.13
2022-12-20T13:17:13.715Z,100045.28
2022-12-20T13:19:53.445Z,100040.59
2022-12-20T13:22:26.727Z,100050.13
2022-12-20T13:24:56.977Z,99983.63
2022-12-20T13:27:41.227Z,100042.06
2022-12-20T13:30:07.796Z,100045.06
2022-12-20T13:32:53.217Z,100046.28
2022-12-20T13:35:26.036Z,100045.56
2022-12-20T13:37:55.112Z,100045.72
2022-12-20T13:40:33.021Z,100042.31
2022-12-20T13:43:09.617Z,99996.88
2022-12-20T13:45:39.414Z,100038.09
2022-12-20T13:48:11.792Z,100002.56
2022-12-20T13:50:40.758Z,100022.81
2022-12-20T13:53:18.126Z,99971.78
2022-12-20T13:55:45.668Z,100023.00
2022-12-20T13:58:36.723Z,100022.84
2022-12-20T14:01:11.591Z,100019.00
2022-12-20T14:03:45.735Z,100010.47
2022-12-20T14:06:14.991Z,100008.09
2022-12-20T14:08:44.812Z,99995.78
2022-12-20T14:11:12.659Z,100004.66
2022-12-20T14:13:39.830Z,99995.16
2022-12-20T14:16:20.191Z,99993.34
2022-12-20T14:18:51.673Z,99953.56
2022-12-20T14:21:19.194Z,99965.09
2022-12-20T14:23:48.836Z,99959.31
2022-12-20T14:26:18.689Z,99975.47
2022-12-20T14:28:59.994Z,99999.75
2022-12-20T14:31:33.160Z,99994.97
2022-12-20T14:34:04.664Z,99990.16
2022-12-20T14:36:33.857Z,99966.72
2022-12-20T14:39:01.071Z,99936.25
2022-12-20T14:41:44.059Z,99966.59
2022-12-20T14:44:17.351Z,99977.19
2022-12-20T14:46:53.137Z,99974.06
2022-12-20T14:49:37.452Z,99972.38
2022-12-20T14:52:33.591Z,99967.22
2022-12-20T14:55:16.906Z,99953.13
2022-12-20T14:57:53.147Z,99966.47
2022-12-20T15:00:29.660Z,99958.72
2022-12-20T15:02:56.471Z,99970.13
2022-12-20T15:05:35.681Z,99956.34
2022-12-20T15:08:16.696Z,99954.47
2022-12-20T15:10:49.549Z,99910.13
2022-12-20T15:13:18.662Z,99921.19
2022-12-20T15:15:46.359Z,99898.47
2022-12-20T15:18:15.222Z,99929.56
2022-12-20T15:20:43.887Z,99887.72
2022-12-20T15:23:14.931Z,99914.66
2022-12-20T15:25:43.966Z,99917.97
2022-12-20T15:28:18.437Z,99908.47
2022-12-20T15:30:47.025Z,99940.63
2022-12-20T15:33:34.918Z,99925.19
2022-12-20T15:36:01.621Z,99912.81
2022-12-20T15:39:03.581Z,99888.34
2022-12-20T15:41:21.849Z,99897.16
2022-12-20T15:43:52.443Z,99939.59
2022-12-20T15:46:19.386Z,99929.41
2022-12-20T15:48:46.139Z,99891.81
2022-12-20T15:51:17.725Z,99940.25
2022-12-20T15:53:45.764Z,99922.41
2022-12-20T15:56:19.570Z,99921.75
2022-12-20T15:58:47.697Z,99906.50
2022-12-20T16:01:27.321Z,99903.25
2022-12-20T16:03:54.111Z,99913.72
2022-12-20T16:06:23.161Z,99909.63
2022-12-20T16:08:49.849Z,99908.56
2022-12-20T16:11:28.191Z,99889.66
2022-12-20T16:13:56.735Z,99927.72
2022-12-20T16:16:29.006Z,99912.63
2022-12-20T16:18:56.075Z,99890.44
2022-12-20T16:21:30.603Z,99925.25
2022-12-20T16:23:57.674Z,99921.81
2022-12-20T16:26:26.429Z,99912.38
2022-12-20T16:28:54.965Z,99905.91
2022-12-20T16:31:26.623Z,99874.69
2022-12-20T16:33:54.653Z,99902.78
2022-12-20T16:36:22.846Z,99880.31
2022-12-20T16:38:50.669Z,99897.56
2022-12-20T16:41:22.827Z,99899.88
2022-12-20T16:43:49.623Z,99854.63
2022-12-20T16:46:19.086Z,99844.84
2022-12-20T16:48:47.246Z,99899.00
2022-12-20T16:51:30.646Z,99891.22
2022-12-20T16:54:22.032Z,99853.25
2022-12-20T16:56:56.806Z,99892.00
2022-12-20T16:59:25.205Z,99887.47
2022-12-20T17:01:54.779Z,99886.19
2022-12-20T17:04:22.155Z,99865.00
2022-12-20T17:06:49.611Z,99886.19
2022-12-20T17:09:16.690Z,99856.19
2022-12-20T17:11:43.783Z,99841.28
2022-12-20T17:14:13.389Z,99884.22
2022-12-20T17:16:41.298Z,99827.66
2022-12-20T17:19:07.991Z,99835.19
2022-12-20T17:24:23.783Z,99858.50
2022-12-20T17:26:51.574Z,99873.84
2022-12-20T17:29:18.496Z,99865.28
2022-12-20T17:31:46.596Z,99885.41
2022-12-20T17:34:16.242Z,99875.81
2022-12-20T17:36:42.916Z,99851.31
2022-12-20T17:39:09.603Z,99875.03
2022-12-20T17:41:36.883Z,99833.41
2022-12-20T17:44:05.024Z,99872.13
2022-12-20T17:46:31.947Z,99864.84
2022-12-20T17:48:59.054Z,99852.50
2022-12-20T17:51:30.586Z,99857.38
2022-12-20T17:53:59.252Z,99808.63
2022-12-20T17:56:34.147Z,99837.41
2022-12-20T17:59:01.968Z,99834.34
2022-12-20T18:01:32.294Z,99835.69
2022-12-20T18:04:04.662Z,99845.06
2022-12-20T18:06:33.494Z,99853.88
2022-12-20T18:09:00.604Z,99845.06
2022-12-20T18:11:28.867Z,99827.31
2022-12-20T18:13:58.405Z,99850.63
2022-12-20T18:16:28.309Z,99850.03
2022-12-20T18:18:55.728Z,99764.06
2022-12-20T18:21:24.328Z,99829.63
2022-12-20T18:23:51.776Z,99805.97
2022-12-20T18:26:21.401Z,99843.66
2022-12-20T18:28:50.264Z,99835.28
2022-12-20T18:31:23.063Z,99839.03
2022-12-20T18:33:55.606Z,99800.16
2022-12-20T18:36:32.808Z,99810.59
2022-12-20T18:39:00.494Z,99826.19
2022-12-20T18:41:29.889Z,99829.13
2022-12-20T18:44:01.186Z,99828.41
2022-12-20T18:46:28.286Z,99793.56
2022-12-20T18:48:56.299Z,99796.34
2022-12-20T18:51:28.882Z,99822.59
2022-12-20T18:53:57.889Z,99823.38
2022-12-20T18:56:29.320Z,99821.56
2022-12-20T18:59:06.211Z,99818.91
2022-12-20T19:01:38.168Z,99809.81
2022-12-20T19:04:07.758Z,99819.00
2022-12-20T19:06:36.224Z,99813.00
2022-12-20T19:09:06.017Z,99776.09
2022-12-20T19:11:33.142Z,99778.50
2022-12-20T19:14:00.203Z,99805.47
2022-12-20T19:16:30.953Z,99760.91
2022-12-20T19:18:58.754Z,99800.66
2022-12-20T19:21:31.288Z,99791.47
2022-12-20T19:24:01.507Z,99768.88
2022-12-20T19:26:29.826Z,99806.91
2022-12-20T19:28:57.597Z,99807.09
2022-12-20T19:31:27.536Z,99789.78
2022-12-20T19:34:01.235Z,99758.44
2022-12-20T19:36:31.652Z,99792.53
2022-12-20T19:39:00.572Z,99794.56
2022-12-20T19:41:30.067Z,99790.72
2022-12-20T19:43:56.975Z,99771.59
2022-12-20T19:46:29.358Z,99768.09
2022-12-20T19:48:58.574Z,99762.94
2022-12-20T19:51:26.619Z,99790.19
2022-12-20T19:53:54.626Z,99776.31
2022-12-20T19:56:24.250Z,99725.94
2022-12-20T19:58:52.970Z,99791.63
2022-12-20T20:01:21.555Z,99748.13
2022-12-20T20:03:48.452Z,99713.78
2022-12-20T20:06:15.224Z,99755.31
2022-12-20T20:08:42.005Z,99741.72
2022-12-20T20:11:11.043Z,99769.13
2022-12-20T20:13:39.020Z,99759.78
2022-12-20T20:16:07.510Z,99763.06
2022-12-20T20:18:36.148Z,99774.78
2022-12-20T20:21:08.043Z,99761.81
2022-12-20T20:23:36.793Z,99728.25
2022-12-20T20:26:07.781Z,99756.53
2022-12-20T20:28:41.842Z,99712.25
2022-12-20T20:31:13.723Z,99714.81
2022-12-20T20:33:40.968Z,99724.31
2022-12-20T20:36:07.971Z,99736.47
2022-12-20T20:38:35.057Z,99714.81
2022-12-20T20:41:01.932Z,99724.03
2022-12-20T20:43:30.308Z,99704.22
2022-12-20T20:45:57.107Z,99721.50
2022-12-20T20:48:23.982Z,99723.56
2022-12-20T20:50:50.700Z,99711.50
2022-12-20T20:53:17.374Z,99707.19
2022-12-20T20:55:44.012Z,99741.19
2022-12-20T20:58:10.603Z,99724.59
2022-12-20T21:00:37.304Z,99677.97
2022-12-20T21:03:04.536Z,99712.31
2022-12-20T21:08:19.510Z,99722.59
2022-12-20T21:10:46.223Z,99706.00
2022-12-20T21:13:13.029Z,99697.19
2022-12-20T21:15:40.852Z,99662.06
2022-12-20T21:18:07.506Z,99689.06
2022-12-20T21:20:34.314Z,99685.72
2022-12-20T21:23:01.602Z,99694.03
2022-12-20T21:25:28.614Z,99688.31
2022-12-20T21:27:56.799Z,99706.63
2022-12-20T21:30:23.913Z,99673.59
2022-12-20T21:32:51.397Z,99706.97
2022-12-20T21:35:18.039Z,99684.69
2022-12-20T21:37:44.690Z,99678.22
2022-12-20T21:40:12.034Z,99682.59
2022-12-20T21:42:38.719Z,99665.31
2022-12-20T21:45:05.850Z,99641.38
2022-12-20T21:47:35.438Z,99668.28
2022-12-20T21:50:02.217Z,99679.50
2022-12-20T21:52:28.822Z,99648.78
2022-12-20T21:54:55.510Z,99637.72
2022-12-20T21:57:22.174Z,99662.28
2022-12-20T21:59:49.035Z,99641.44
2022-12-20T22:02:15.894Z,99631.22
2022-12-20T22:04:42.822Z,99617.94
2022-12-20T22:07:09.514Z,99628.16
2022-12-20T22:09:36.088Z,99590.25
2022-12-20T22:12:02.752Z,99597.78
2022-12-20T22:14:29.433Z,99581.44
2022-12-20T22:16:56.204Z,99626.50
2022-12-20T22:19:23.090Z,99630.28
2022-12-20T22:21:57.507Z,99632.50
2022-12-20T22:24:25.258Z,99617.63
2022-12-20T22:26:52.109Z,99630.88
2022-12-20T22:29:19.119Z,99578.34
2022-12-20T22:31:45.985Z,99582.97
2022-12-20T22:34:12.716Z,99623.25
2022-12-20T22:36:39.513Z,99608.44
2022-12-20T22:39:06.155Z,99617.44
2022-12-20T22:41:34.981Z,99601.59
2022-12-20T22:44:02.560Z,99604.63
2022-12-20T22:46:30.212Z,99603.69
2022-12-20T22:48:58.341Z,99600.66
2022-12-20T22:51:27.935Z,99580.06
2022-12-20T22:53:54.761Z,99561.41
2022-12-20T22:56:21.877Z,99564.47
2022-12-20T22:58:49.706Z,99586.31
2022-12-20T23:01:18.835Z,99601.34
2022-12-20T23:03:46.138Z,99570.03
2022-12-20T23:06:15.470Z,99596.72
2022-12-20T23:08:42.537Z,99552.09
2022-12-20T23:11:37.514Z,99578.09
2022-12-20T23:14:24.039Z,99535.56
2022-12-20T23:16:51.337Z,99567.25
2022-12-20T23:19:18.256Z,99541.66
2022-12-20T23:22:03.415Z,99572.69
2022-12-20T23:24:30.131Z,99564.47
2022-12-20T23:26:57.178Z,99572.97
2022-12-20T23:29:23.963Z,99566.13
2022-12-20T23:31:51.163Z,99542.53
2022-12-20T23:34:17.885Z,99558.69
2022-12-20T23:36:44.477Z,99569.59
2022-12-20T23:39:11.152Z,99520.44
2022-12-20T23:41:37.770Z,99551.91
2022-12-20T23:44:06.206Z,99544.81
2022-12-20T23:46:33.317Z,99561.94
2022-12-20T23:49:00.120Z,99549.78
2022-12-20T23:51:26.704Z,99502.16
2022-12-20T23:53:53.357Z,99535.56
2022-12-20T23:56:21.556Z,99560.13
2022-12-20T23:58:53.918Z,99549.50
